Time;durP1;ratioP1;P1;durP2;ratioP2;P2;SDS_P1;SDS_P2;PMS_P1;PMS_P2;Temp;Humidity;BMP_temperature;BMP_pressure;BME280_temperature;BME280_humidity;BME280_pressure;Samples;Min_cycle;Max_cycle;Signal;HPM_P1;HPM_P2
2023/07/04 00:00:13;;;;;;;5.20;2.35;;;16.90;99.90;;;;;;4993419;28;20025;-72
2023/07/04 00:02:39;;;;;;;7.55;3.00;;;16.90;99.90;;;;;;4993791;28;20031;-71
2023/07/04 00:05:06;;;;;;;6.60;3.35;;;17.00;99.90;;;;;;4993702;28;20164;-71
2023/07/04 00:07:31;;;;;;;4.43;2.25;;;17.20;99.90;;;;;;4993376;28;20049;-71
2023/07/04 00:09:59;;;;;;;6.57;2.38;;;17.30;99.90;;;;;;4993605;28;20473;-71
2023/07/04 00:12:25;;;;;;;7.22;3.08;;;17.20;99.90;;;;;;4993763;28;20030;-72
2023/07/04 00:14:51;;;;;;;8.95;3.33;;;17.20;99.90;;;;;;4993252;28;20026;-71
2023/07/04 00:17:18;;;;;;;6.10;2.70;;;17.20;99.90;;;;;;4993316;28;20038;-71
2023/07/04 00:19:44;;;;;;;7.38;2.92;;;17.20;99.90;;;;;;4993524;28;20118;-72
2023/07/04 00:22:10;;;;;;;5.30;2.75;;;17.10;99.90;;;;;;4993583;28;20077;-71
2023/07/04 00:24:40;;;;;;;8.20;3.00;;;17.00;99.90;;;;;;4993509;28;20477;-72
2023/07/04 00:27:06;;;;;;;5.13;3.13;;;17.00;99.90;;;;;;4993055;28;20405;-71
2023/07/04 00:29:32;;;;;;;5.55;2.50;;;17.00;99.90;;;;;;4997023;28;20023;-72
2023/07/04 00:32:02;;;;;;;5.50;2.10;;;16.90;99.90;;;;;;4997104;28;20038;-71
2023/07/04 00:34:28;;;;;;;4.13;1.95;;;16.90;99.90;;;;;;4997277;28;20089;-71
2023/07/04 00:36:53;;;;;;;5.47;2.70;;;16.80;99.90;;;;;;4997211;28;20030;-71
2023/07/04 00:39:19;;;;;;;9.15;2.47;;;16.80;99.90;;;;;;4997278;28;20034;-71
2023/07/04 00:41:45;;;;;;;6.28;2.35;;;17.00;99.90;;;;;;4996915;28;20036;-71
2023/07/04 00:44:22;;;;;;;5.80;2.58;;;17.10;99.90;;;;;;4996932;28;20464;-72
2023/07/04 00:47:22;;;;;;;4.70;2.10;;;17.20;99.90;;;;;;4996730;28;20032;-71
2023/07/04 00:49:57;;;;;;;6.03;2.53;;;17.30;99.90;;;;;;4997039;28;20125;-71
2023/07/04 00:52:27;;;;;;;4.93;2.20;;;17.30;99.90;;;;;;4996786;28;20469;-71
2023/07/04 00:54:59;;;;;;;4.07;1.90;;;17.20;99.90;;;;;;4996710;28;20154;-71
2023/07/04 00:57:31;;;;;;;3.70;1.67;;;17.20;99.90;;;;;;4996669;28;20041;-71
2023/07/04 00:59:58;;;;;;;5.30;1.67;;;17.20;99.90;;;;;;4996803;28;20124;-71
2023/07/04 01:02:28;;;;;;;4.78;1.95;;;17.10;99.90;;;;;;4996812;28;20034;-71
2023/07/04 01:04:55;;;;;;;6.15;2.38;;;16.90;99.90;;;;;;4996549;28;20085;-71
2023/07/04 01:07:20;;;;;;;5.53;3.03;;;17.00;99.90;;;;;;4996525;28;20575;-71
2023/07/04 01:09:53;;;;;;;7.43;2.10;;;17.10;99.90;;;;;;4996683;28;20038;-71
2023/07/04 01:12:19;;;;;;;4.45;1.80;;;17.20;99.90;;;;;;4996275;28;20408;-71
2023/07/04 01:14:48;;;;;;;5.75;1.67;;;17.20;99.90;;;;;;4996376;28;20041;-71
2023/07/04 01:17:14;;;;;;;4.03;1.60;;;17.20;99.90;;;;;;4996034;28;20033;-71
2023/07/04 01:19:40;;;;;;;3.38;1.70;;;17.10;99.90;;;;;;4996326;28;20033;-71
2023/07/04 01:22:33;;;;;;;5.38;2.45;;;17.00;99.90;;;;;;4996377;28;20476;-71
2023/07/04 01:25:29;;;;;;;9.30;1.80;;;17.00;99.90;;;;;;4995999;28;20553;-71
2023/07/04 01:27:59;;;;;;;3.90;1.90;;;17.00;99.90;;;;;;4996472;28;20496;-72
2023/07/04 01:30:28;;;;;;;4.07;1.95;;;17.20;99.90;;;;;;4996427;28;20053;-72
2023/07/04 01:32:55;;;;;;;4.50;1.90;;;16.80;99.90;;;;;;4996135;28;20046;-71
2023/07/04 01:35:25;;;;;;;5.80;2.20;;;16.60;99.90;;;;;;4996045;28;20125;-71
2023/07/04 01:37:51;;;;;;;5.03;1.95;;;16.60;99.90;;;;;;4996476;28;20047;-71
2023/07/04 01:40:17;;;;;;;4.28;1.65;;;16.50;99.90;;;;;;4995205;28;20034;-71
2023/07/04 01:42:44;;;;;;;6.88;2.90;;;16.60;99.90;;;;;;4996047;28;20476;-71
2023/07/04 01:45:10;;;;;;;4.07;2.05;;;16.60;99.90;;;;;;4996041;28;20026;-71
2023/07/04 01:47:37;;;;;;;4.70;2.10;;;16.70;99.90;;;;;;4995921;28;20081;-71
2023/07/04 01:50:04;;;;;;;4.78;2.17;;;16.70;99.90;;;;;;4995580;28;20026;-72
2023/07/04 01:52:30;;;;;;;3.90;1.85;;;16.60;99.90;;;;;;4995741;28;20041;-71
2023/07/04 01:54:56;;;;;;;6.35;2.60;;;16.50;99.90;;;;;;4995555;28;20447;-71
2023/07/04 01:57:22;;;;;;;5.93;2.15;;;16.40;99.90;;;;;;4995549;28;20030;-71
2023/07/04 01:59:48;;;;;;;4.13;2.10;;;16.40;99.90;;;;;;4995116;28;20031;-71
2023/07/04 02:02:14;;;;;;;7.93;2.17;;;16.40;99.90;;;;;;4995629;28;20046;-71
2023/07/04 02:04:40;;;;;;;6.75;2.63;;;16.40;99.90;;;;;;4994006;28;20400;-71
2023/07/04 02:07:06;;;;;;;3.75;1.95;;;16.30;99.90;;;;;;4995527;28;20026;-71
2023/07/04 02:09:32;;;;;;;5.30;2.00;;;16.10;99.90;;;;;;4995480;28;20034;-71
2023/07/04 02:11:58;;;;;;;5.30;2.05;;;16.10;99.90;;;;;;4995501;28;20362;-71
2023/07/04 02:14:24;;;;;;;4.22;1.77;;;16.10;99.90;;;;;;4995290;28;20066;-71
2023/07/04 02:16:50;;;;;;;4.07;1.90;;;16.20;99.90;;;;;;4995117;28;20105;-71
2023/07/04 02:19:16;;;;;;;6.22;1.98;;;16.30;99.90;;;;;;4995127;28;20022;-71
2023/07/04 02:21:42;;;;;;;4.53;2.13;;;16.10;99.90;;;;;;4995169;28;20038;-71
2023/07/04 02:24:08;;;;;;;4.75;2.35;;;16.20;99.90;;;;;;4995002;28;20105;-71
2023/07/04 02:26:34;;;;;;;4.00;2.22;;;16.10;99.90;;;;;;4995248;28;20026;-71
2023/07/04 02:29:00;;;;;;;6.75;2.70;;;16.00;99.90;;;;;;4995250;28;20546;-71
2023/07/04 02:31:27;;;;;;;3.53;1.90;;;15.90;99.90;;;;;;4995059;28;20052;-71
2023/07/04 02:33:53;;;;;;;4.45;1.98;;;15.90;99.90;;;;;;4995136;28;20035;-71
2023/07/04 02:36:19;;;;;;;6.95;2.67;;;16.00;99.90;;;;;;4994890;28;20603;-71
2023/07/04 02:38:45;;;;;;;4.28;1.80;;;16.10;99.90;;;;;;4993828;28;20048;-71
2023/07/04 02:41:11;;;;;;;4.18;2.50;;;16.20;99.90;;;;;;4994998;28;20030;-71
2023/07/04 02:43:37;;;;;;;4.57;2.42;;;16.20;99.90;;;;;;4994683;28;20038;-72
2023/07/04 02:46:04;;;;;;;4.68;2.00;;;16.00;99.90;;;;;;4994682;28;20069;-71
2023/07/04 02:48:31;;;;;;;4.97;2.15;;;15.90;99.90;;;;;;4994528;28;20472;-71
2023/07/04 02:50:57;;;;;;;5.30;2.22;;;15.70;99.90;;;;;;4993943;28;20485;-71
2023/07/04 02:53:22;;;;;;;6.20;2.33;;;15.60;99.90;;;;;;4994282;28;20061;-71
2023/07/04 02:55:49;;;;;;;3.85;1.70;;;15.60;99.90;;;;;;4994410;28;20038;-71
2023/07/04 02:58:15;;;;;;;5.03;2.10;;;15.50;99.90;;;;;;4994705;28;20018;-71
2023/07/04 03:00:42;;;;;;;4.63;2.95;;;15.60;99.90;;;;;;4990659;28;20130;-73
2023/07/04 03:03:08;;;;;;;4.82;2.15;;;15.70;99.90;;;;;;4976917;28;20052;-73
2023/07/04 03:05:36;;;;;;;4.20;1.92;;;15.90;99.90;;;;;;4989648;28;20045;-73
2023/07/04 03:08:03;;;;;;;7.10;2.38;;;15.90;99.90;;;;;;4990683;28;20034;-80
2023/07/04 03:10:29;;;;;;;5.05;1.90;;;16.00;99.90;;;;;;4990648;28;20030;-83
2023/07/04 03:12:54;;;;;;;4.03;2.05;;;16.00;99.90;;;;;;4990512;28;20041;-73
2023/07/04 03:15:20;;;;;;;4.57;2.90;;;16.10;99.90;;;;;;4988966;28;20373;-73
2023/07/04 03:17:48;;;;;;;3.90;1.90;;;16.20;99.90;;;;;;4988822;28;20034;-80
2023/07/04 03:20:15;;;;;;;6.97;2.20;;;16.50;99.90;;;;;;4988517;28;20567;-73
2023/07/04 03:22:42;;;;;;;5.03;2.33;;;16.60;99.90;;;;;;4987338;28;20037;-74
2023/07/04 03:25:09;;;;;;;2.92;1.58;;;16.60;99.90;;;;;;4988649;28;20527;-74
2023/07/04 03:27:37;;;;;;;4.82;1.60;;;16.50;99.90;;;;;;4988666;28;20121;-74
2023/07/04 03:30:06;;;;;;;4.25;1.75;;;16.40;99.90;;;;;;4988326;28;20034;-74
2023/07/04 03:32:32;;;;;;;5.32;2.15;;;16.50;99.90;;;;;;4988171;28;20022;-73
2023/07/04 03:35:01;;;;;;;4.63;2.13;;;16.30;99.90;;;;;;4988200;28;20037;-75
2023/07/04 03:37:31;;;;;;;5.13;2.13;;;16.30;99.90;;;;;;4988304;28;20041;-75
2023/07/04 03:39:58;;;;;;;4.47;1.92;;;16.30;99.90;;;;;;4989871;28;20026;-74
2023/07/04 03:42:26;;;;;;;4.72;2.13;;;16.40;99.90;;;;;;4990471;28;20030;-74
2023/07/04 03:44:53;;;;;;;4.00;2.15;;;16.50;99.90;;;;;;4990088;28;20488;-73
2023/07/04 03:47:19;;;;;;;5.38;2.10;;;16.50;99.90;;;;;;4990408;28;20091;-74
2023/07/04 03:49:45;;;;;;;6.60;1.52;;;16.50;99.90;;;;;;4990840;28;20496;-73
2023/07/04 03:52:11;;;;;;;4.47;2.13;;;16.50;99.90;;;;;;4990511;28;20075;-73
2023/07/04 03:54:37;;;;;;;4.55;1.52;;;16.40;99.90;;;;;;4989526;28;20046;-74
2023/07/04 03:57:03;;;;;;;3.40;1.70;;;16.40;99.90;;;;;;4988805;28;20225;-76
2023/07/04 03:59:28;;;;;;;5.43;2.70;;;16.50;99.90;;;;;;4986760;28;20031;-75
2023/07/04 04:01:54;;;;;;;4.47;1.80;;;16.50;99.90;;;;;;4986728;28;20029;-79
2023/07/04 04:04:20;;;;;;;3.97;2.15;;;16.60;99.90;;;;;;4987244;28;20085;-73
2023/07/04 04:06:51;;;;;;;4.20;2.03;;;16.60;99.90;;;;;;4987642;28;20105;-73
2023/07/04 04:09:16;;;;;;;6.47;2.22;;;16.70;99.90;;;;;;4987750;28;20026;-73
2023/07/04 04:11:42;;;;;;;4.25;1.80;;;16.80;99.90;;;;;;4987516;28;20112;-74
2023/07/04 04:14:09;;;;;;;3.10;2.17;;;16.80;99.90;;;;;;4987675;28;20037;-73
2023/07/04 04:16:35;;;;;;;3.60;1.77;;;16.80;99.90;;;;;;4987299;28;20041;-76
2023/07/04 04:19:01;;;;;;;6.00;2.10;;;16.70;99.90;;;;;;4987577;28;20404;-73
2023/07/04 04:21:27;;;;;;;5.78;2.38;;;16.50;99.90;;;;;;4987436;28;20022;-73
2023/07/04 04:23:53;;;;;;;22.00;2.95;;;16.60;99.90;;;;;;4987394;28;20040;-73
2023/07/04 04:26:21;;;;;;;4.68;2.60;;;16.60;99.90;;;;;;4987980;28;20464;-73
2023/07/04 04:28:46;;;;;;;8.23;4.07;;;16.70;99.90;;;;;;4987185;28;20057;-72
2023/07/04 04:31:13;;;;;;;7.53;3.90;;;16.80;99.90;;;;;;4987340;28;20496;-73
2023/07/04 04:33:38;;;;;;;10.50;3.58;;;16.90;99.90;;;;;;4987435;28;20585;-74
2023/07/04 04:36:05;;;;;;;5.63;2.50;;;16.60;99.90;;;;;;4987493;28;20041;-73
2023/07/04 04:38:31;;;;;;;4.25;2.28;;;16.50;99.90;;;;;;4987723;28;20572;-74
2023/07/04 04:41:04;;;;;;;7.03;2.92;;;16.70;99.90;;;;;;4987293;28;20050;-73
2023/07/04 04:43:32;;;;;;;4.45;2.65;;;16.90;99.90;;;;;;4987161;28;20113;-73
2023/07/04 04:45:59;;;;;;;9.50;2.90;;;17.10;99.90;;;;;;4987556;28;20081;-73
2023/07/04 04:48:29;;;;;;;7.30;4.50;;;17.20;99.90;;;;;;4986938;28;20058;-75
2023/07/04 04:50:58;;;;;;;10.15;5.35;;;17.30;99.90;;;;;;4987028;28;20029;-77
2023/07/04 04:53:25;;;;;;;6.90;5.38;;;17.30;99.90;;;;;;4987127;28;20125;-74
2023/07/04 04:55:51;;;;;;;7.03;4.43;;;17.30;99.90;;;;;;4987183;28;20035;-73
2023/07/04 04:58:18;;;;;;;4.75;2.38;;;17.30;99.90;;;;;;4986931;28;20030;-73
2023/07/04 05:00:44;;;;;;;8.55;2.22;;;16.90;99.90;;;;;;4987212;28;20520;-73
2023/07/04 05:03:10;;;;;;;4.60;2.50;;;16.90;99.90;;;;;;4986905;28;20035;-73
2023/07/04 05:05:36;;;;;;;4.68;2.28;;;17.00;99.90;;;;;;4987155;28;20027;-74
2023/07/04 05:08:02;;;;;;;7.00;2.78;;;17.20;99.90;;;;;;4986660;28;20097;-72
2023/07/04 05:10:28;;;;;;;13.48;6.18;;;17.30;99.90;;;;;;4987307;28;20126;-72
2023/07/04 05:12:54;;;;;;;9.30;6.63;;;17.40;99.90;;;;;;4986840;28;20063;-76
2023/07/04 05:15:20;;;;;;;11.02;7.47;;;17.50;99.90;;;;;;4988310;28;20125;-80
2023/07/04 05:17:45;;;;;;;8.15;5.25;;;17.50;99.90;;;;;;4990625;28;20480;-73
2023/07/04 05:20:16;;;;;;;6.90;4.32;;;17.60;99.90;;;;;;4990757;28;20033;-74
2023/07/04 05:22:42;;;;;;;7.03;4.45;;;17.70;99.90;;;;;;4990288;28;20472;-75
2023/07/04 05:25:08;;;;;;;6.40;3.40;;;17.80;99.90;;;;;;4989940;28;20129;-74
2023/07/04 05:27:34;;;;;;;6.85;4.50;;;17.80;99.90;;;;;;4990379;28;20102;-73
2023/07/04 05:30:00;;;;;;;7.22;5.15;;;17.70;99.90;;;;;;4990459;28;20468;-76
2023/07/04 05:32:25;;;;;;;7.10;4.65;;;17.80;99.90;;;;;;4990073;28;20037;-73
2023/07/04 05:34:51;;;;;;;6.43;4.30;;;17.80;99.90;;;;;;4990167;28;20038;-74
2023/07/04 05:37:17;;;;;;;8.65;5.28;;;17.80;99.90;;;;;;4990414;28;20045;-74
2023/07/04 05:39:44;;;;;;;11.35;4.60;;;17.90;99.90;;;;;;4990420;28;20408;-73
2023/07/04 05:42:10;;;;;;;8.38;5.80;;;18.00;99.90;;;;;;4990515;28;20027;-74
2023/07/04 05:44:35;;;;;;;9.93;5.65;;;18.00;99.90;;;;;;4989960;28;20034;-74
2023/07/04 05:47:01;;;;;;;7.55;5.35;;;18.00;99.90;;;;;;4990025;28;20546;-77
2023/07/04 05:49:26;;;;;;;8.85;5.68;;;18.10;99.90;;;;;;4989914;28;20057;-73
2023/07/04 05:51:53;;;;;;;8.80;5.93;;;18.10;99.90;;;;;;4989763;28;20027;-73
2023/07/04 05:54:18;;;;;;;9.35;6.78;;;18.10;99.90;;;;;;4989413;28;20526;-73
2023/07/04 05:56:44;;;;;;;13.50;7.43;;;18.30;99.90;;;;;;4989860;28;20045;-73
2023/07/04 05:59:10;;;;;;;11.85;7.60;;;18.50;99.90;;;;;;4989924;28;20035;-73
2023/07/04 06:01:42;;;;;;;14.35;9.07;;;18.50;99.90;;;;;;4989544;28;20037;-75
2023/07/04 06:04:09;;;;;;;11.88;8.45;;;18.50;99.90;;;;;;4989789;28;20499;-75
2023/07/04 06:06:40;;;;;;;11.30;8.48;;;18.50;99.90;;;;;;4990115;28;20033;-73
2023/07/04 06:09:09;;;;;;;10.00;6.20;;;18.50;99.90;;;;;;4989717;28;20038;-73
2023/07/04 06:11:38;;;;;;;8.05;4.88;;;18.70;99.90;;;;;;4989773;28;20058;-74
2023/07/04 06:14:05;;;;;;;8.40;3.65;;;18.90;99.90;;;;;;4989703;28;20069;-73
2023/07/04 06:16:32;;;;;;;14.40;8.00;;;18.90;99.90;;;;;;4989185;28;20030;-74
2023/07/04 06:18:57;;;;;;;10.30;7.47;;;19.00;99.90;;;;;;4989407;28;20607;-74
2023/07/04 06:21:25;;;;;;;10.95;7.15;;;18.90;99.90;;;;;;4989269;28;20077;-80
2023/07/04 06:23:56;;;;;;;13.70;7.97;;;19.00;99.90;;;;;;4989282;28;20028;-73
2023/07/04 06:26:22;;;;;;;12.85;8.52;;;19.10;99.90;;;;;;4989200;28;20113;-82
2023/07/04 06:28:49;;;;;;;13.15;9.60;;;19.10;99.90;;;;;;4989559;28;20113;-73
2023/07/04 06:31:16;;;;;;;15.15;9.35;;;19.20;99.90;;;;;;4989498;28;20454;-74
2023/07/04 06:33:43;;;;;;;12.02;8.68;;;19.20;99.90;;;;;;4989084;28;20030;-74
2023/07/04 06:36:14;;;;;;;9.23;6.65;;;19.20;99.90;;;;;;4988877;28;20053;-75
2023/07/04 06:38:41;;;;;;;9.90;6.15;;;19.30;99.90;;;;;;4989502;28;20122;-73
2023/07/04 06:41:10;;;;;;;8.52;6.20;;;19.40;99.90;;;;;;4989239;28;20026;-74
2023/07/04 06:43:36;;;;;;;8.13;6.38;;;19.60;99.90;;;;;;4988953;28;20045;-75
2023/07/04 06:46:02;;;;;;;8.75;5.85;;;19.70;99.90;;;;;;4989305;28;20030;-74
2023/07/04 06:48:29;;;;;;;8.23;6.18;;;19.60;99.90;;;;;;4988452;28;20038;-76
2023/07/04 06:51:16;;;;;;;10.10;5.80;;;19.60;99.90;;;;;;4989020;28;20026;-75
2023/07/04 06:53:42;;;;;;;10.57;6.28;;;19.70;99.90;;;;;;4988845;28;20062;-84
2023/07/04 06:56:16;;;;;;;7.88;5.13;;;19.70;99.90;;;;;;4988983;28;20468;-73
2023/07/04 06:58:46;;;;;;;10.68;5.22;;;19.50;99.90;;;;;;4988822;28;20027;-73
2023/07/04 07:01:12;;;;;;;7.00;5.15;;;19.60;99.90;;;;;;4988095;28;20034;-76
2023/07/04 07:03:38;;;;;;;7.28;4.32;;;19.70;99.90;;;;;;4988845;28;20034;-73
2023/07/04 07:06:05;;;;;;;20.67;6.45;;;19.80;99.90;;;;;;4988443;28;20400;-75
2023/07/04 07:08:31;;;;;;;11.05;5.40;;;20.00;99.90;;;;;;4988305;28;20034;-74
2023/07/04 07:11:02;;;;;;;7.03;4.95;;;20.40;99.90;;;;;;4988149;28;20034;-73
2023/07/04 07:13:29;;;;;;;7.32;5.53;;;20.80;99.90;;;;;;4988216;28;20030;-76
2023/07/04 07:16:05;;;;;;;9.90;5.80;;;21.00;99.90;;;;;;4988299;28;20022;-82
2023/07/04 07:18:33;;;;;;;8.45;5.18;;;21.30;99.90;;;;;;4988035;28;20026;-73
2023/07/04 07:21:01;;;;;;;7.95;5.03;;;21.40;99.90;;;;;;4988023;28;20512;-74
2023/07/04 07:23:26;;;;;;;6.35;4.60;;;21.80;99.90;;;;;;4988770;28;20114;-74
2023/07/04 07:26:00;;;;;;;6.50;3.92;;;21.80;99.90;;;;;;4988411;28;20456;-84
2023/07/04 07:28:27;;;;;;;9.15;4.15;;;22.20;99.90;;;;;;4988227;28;20057;-82
2023/07/04 07:31:04;;;;;;;5.90;4.18;;;21.70;99.90;;;;;;4988444;28;20164;-75
2023/07/04 07:33:32;;;;;;;5.68;4.18;;;21.80;99.90;;;;;;4987611;28;20026;-78
2023/07/04 07:35:59;;;;;;;8.10;4.20;;;22.00;99.90;;;;;;4988043;28;20416;-74
2023/07/04 07:38:25;;;;;;;8.88;4.63;;;22.40;99.90;;;;;;5002244;28;20030;-74
2023/07/04 07:40:54;;;;;;;7.25;4.88;;;22.20;99.90;;;;;;4987371;28;20492;-74
2023/07/04 07:43:20;;;;;;;8.82;4.43;;;22.00;99.90;;;;;;4988383;28;20117;-74
2023/07/04 07:45:46;;;;;;;8.23;5.55;;;21.60;99.90;;;;;;4988084;28;20154;-73
2023/07/04 07:48:13;;;;;;;9.05;4.47;;;21.40;99.90;;;;;;4988091;28;20041;-74
2023/07/04 07:50:40;;;;;;;10.50;4.57;;;21.20;99.90;;;;;;4987101;28;20056;-73
2023/07/04 07:53:06;;;;;;;6.10;3.70;;;21.10;99.90;;;;;;4986694;28;20037;-72
2023/07/04 07:55:32;;;;;;;8.13;4.20;;;21.10;99.90;;;;;;4986482;28;20034;-72
2023/07/04 07:57:57;;;;;;;6.63;4.72;;;21.00;99.90;;;;;;4986783;28;20500;-72
2023/07/04 08:00:23;;;;;;;7.68;4.53;;;21.00;99.90;;;;;;4986478;28;20470;-72
2023/07/04 08:02:49;;;;;;;8.90;4.60;;;20.80;99.90;;;;;;4986463;28;20118;-72
2023/07/04 08:05:15;;;;;;;7.07;4.40;;;20.90;99.90;;;;;;4986906;28;20030;-72
2023/07/04 08:07:41;;;;;;;5.78;3.53;;;20.90;99.90;;;;;;4986423;28;20030;-72
2023/07/04 08:10:07;;;;;;;6.95;4.55;;;21.00;99.90;;;;;;4986099;28;20030;-72
2023/07/04 08:12:33;;;;;;;8.20;4.07;;;21.00;99.90;;;;;;4985962;28;20501;-73
2023/07/04 08:14:59;;;;;;;7.60;3.50;;;20.90;99.90;;;;;;4986057;28;20460;-72
2023/07/04 08:17:25;;;;;;;8.20;4.00;;;20.90;99.90;;;;;;4986265;28;20034;-73
2023/07/04 08:19:51;;;;;;;8.75;3.83;;;20.90;99.90;;;;;;4985754;28;20030;-72
2023/07/04 08:22:17;;;;;;;6.03;3.80;;;21.00;99.90;;;;;;4985596;28;20551;-72
2023/07/04 08:24:42;;;;;;;5.68;3.40;;;21.20;99.90;;;;;;4986078;28;20152;-72
2023/07/04 08:27:08;;;;;;;7.28;4.22;;;21.10;99.90;;;;;;4985919;28;20049;-72
2023/07/04 08:29:34;;;;;;;7.30;2.90;;;21.10;99.90;;;;;;4985917;28;20031;-72
2023/07/04 08:31:59;;;;;;;5.85;4.05;;;21.20;99.90;;;;;;4985914;28;20476;-72
2023/07/04 08:34:25;;;;;;;6.38;3.80;;;21.50;99.90;;;;;;4986280;28;20041;-72
2023/07/04 08:36:51;;;;;;;5.68;3.45;;;21.70;99.90;;;;;;4985798;28;20038;-72
2023/07/04 08:39:17;;;;;;;7.28;3.92;;;22.10;99.90;;;;;;4985910;28;20477;-72
2023/07/04 08:41:59;;;;;;;5.25;3.53;;;22.30;99.90;;;;;;4986215;28;20085;-72
2023/07/04 08:44:34;;;;;;;5.95;3.47;;;22.40;99.90;;;;;;4986398;28;20025;-72
2023/07/04 08:46:59;;;;;;;5.90;2.97;;;22.50;99.90;;;;;;4985863;28;20049;-71
2023/07/04 08:49:47;;;;;;;7.70;3.33;;;22.60;99.90;;;;;;4987258;28;20026;-71
2023/07/04 08:52:23;;;;;;;5.40;3.38;;;22.90;99.90;;;;;;4989769;28;20589;-71
2023/07/04 08:54:54;;;;;;;8.32;3.60;;;23.20;99.90;;;;;;4989423;28;20089;-72
2023/07/04 08:57:19;;;;;;;5.35;3.10;;;23.10;99.90;;;;;;4989534;28;20027;-72
2023/07/04 08:59:47;;;;;;;4.88;3.20;;;23.40;99.90;;;;;;4989095;28;20033;-72
2023/07/04 09:02:23;;;;;;;8.27;3.65;;;23.50;99.90;;;;;;4989393;28;20492;-72
2023/07/04 09:05:08;;;;;;;11.25;4.07;;;23.10;99.90;;;;;;4989125;28;20019;-72
2023/07/04 09:07:46;;;;;;;6.50;3.40;;;23.70;99.90;;;;;;4989266;28;20042;-71
2023/07/04 09:10:27;;;;;;;6.72;3.60;;;23.80;99.90;;;;;;4991175;28;20034;-72
2023/07/04 09:12:53;;;;;;;5.07;3.35;;;23.60;99.90;;;;;;4991169;28;20041;-71
2023/07/04 09:15:25;;;;;;;6.43;3.30;;;23.70;99.90;;;;;;4991094;28;20046;-72
2023/07/04 09:18:27;;;;;;;6.00;3.75;;;23.90;99.90;;;;;;4991967;28;20506;-71
2023/07/04 09:21:10;;;;;;;5.50;3.38;;;24.90;99.90;;;;;;4992395;28;20504;-71
2023/07/04 09:23:36;;;;;;;8.68;3.22;;;24.60;99.90;;;;;;4992070;28;20046;-72
2023/07/04 09:26:02;;;;;;;7.07;3.10;;;24.30;99.90;;;;;;4991915;28;20035;-71
2023/07/04 09:28:29;;;;;;;4.18;2.72;;;24.50;99.90;;;;;;4991713;28;20053;-71
2023/07/04 09:30:58;;;;;;;8.00;3.70;;;24.00;99.90;;;;;;4991601;28;20064;-72
2023/07/04 09:33:26;;;;;;;5.20;3.40;;;24.40;99.90;;;;;;4991924;28;20061;-72
2023/07/04 09:35:54;;;;;;;7.13;3.97;;;24.80;99.90;;;;;;4991692;28;20137;-72
2023/07/04 09:38:20;;;;;;;6.68;3.47;;;25.40;99.90;;;;;;4991667;28;20077;-72
2023/07/04 09:40:55;;;;;;;6.00;2.88;;;24.80;99.90;;;;;;4991366;28;20026;-71
2023/07/04 09:43:27;;;;;;;7.00;2.75;;;24.70;99.90;;;;;;4991561;28;20065;-72
2023/07/04 09:46:29;;;;;;;5.15;3.08;;;25.40;99.90;;;;;;4991414;28;20277;-71
2023/07/04 09:49:15;;;;;;;6.35;3.15;;;25.20;99.90;;;;;;4991421;28;20043;-72
2023/07/04 09:51:41;;;;;;;6.03;3.03;;;25.00;99.90;;;;;;4991658;28;20121;-72
2023/07/04 09:54:19;;;;;;;4.55;2.97;;;25.40;99.90;;;;;;4991579;28;20042;-72
2023/07/04 09:56:45;;;;;;;5.90;2.85;;;25.70;99.90;;;;;;4991572;28;20034;-72
2023/07/04 09:59:21;;;;;;;4.70;2.83;;;26.00;99.90;;;;;;4991739;28;20504;-72
2023/07/04 10:01:52;;;;;;;5.53;2.95;;;26.10;99.90;;;;;;4990696;28;20484;-72
2023/07/04 10:04:28;;;;;;;5.63;2.95;;;25.90;99.90;;;;;;4990961;28;20021;-72
2023/07/04 10:06:56;;;;;;;3.95;2.72;;;26.10;99.90;;;;;;4991335;28;20551;-72
2023/07/04 10:09:22;;;;;;;5.13;2.90;;;25.90;99.90;;;;;;4991185;28;20519;-72
2023/07/04 10:11:51;;;;;;;5.65;2.92;;;25.90;99.90;;;;;;4991402;28;20113;-72
2023/07/04 10:14:29;;;;;;;5.47;3.17;;;25.60;99.90;;;;;;4991382;28;20076;-72
2023/07/04 10:16:55;;;;;;;6.13;2.55;;;25.40;99.90;;;;;;4990947;28;20031;-72
2023/07/04 10:19:22;;;;;;;4.38;3.00;;;25.00;99.90;;;;;;4991213;28;20036;-72
2023/07/04 10:21:53;;;;;;;4.72;2.53;;;25.20;99.90;;;;;;4991168;28;20030;-72
2023/07/04 10:24:24;;;;;;;5.75;2.45;;;25.00;99.90;;;;;;4990756;28;20032;-72
2023/07/04 10:26:57;;;;;;;5.10;2.72;;;25.30;99.90;;;;;;4991038;28;20126;-72
2023/07/04 10:29:48;;;;;;;4.78;2.65;;;25.50;99.90;;;;;;4990446;28;20038;-72
2023/07/04 10:32:16;;;;;;;5.35;3.08;;;25.60;99.50;;;;;;4990837;28;20102;-72
2023/07/04 10:34:46;;;;;;;5.15;3.05;;;25.90;99.90;;;;;;4991004;28;20126;-72
2023/07/04 10:37:39;;;;;;;5.50;3.25;;;26.00;99.70;;;;;;4991089;28;20022;-72
2023/07/04 10:40:11;;;;;;;5.38;2.95;;;25.90;99.90;;;;;;4990357;28;20126;-72
2023/07/04 10:42:53;;;;;;;6.95;3.00;;;26.30;99.90;;;;;;4990764;28;20034;-72
2023/07/04 10:45:23;;;;;;;4.30;2.63;;;26.50;99.90;;;;;;4990271;28;20022;-72
2023/07/04 10:47:53;;;;;;;4.95;2.83;;;27.10;99.90;;;;;;4990417;28;20443;-72
2023/07/04 10:50:35;;;;;;;6.28;3.10;;;26.70;98.60;;;;;;4990341;28;20019;-72
2023/07/04 10:53:01;;;;;;;6.57;2.80;;;26.80;99.90;;;;;;4990461;28;20038;-72
2023/07/04 10:55:39;;;;;;;5.45;3.33;;;27.10;99.70;;;;;;4990221;28;20092;-72
2023/07/04 10:58:16;;;;;;;6.60;3.10;;;27.20;99.20;;;;;;4989911;28;20026;-72
2023/07/04 11:00:59;;;;;;;6.15;2.67;;;26.90;98.90;;;;;;4986713;28;20059;-71
2023/07/04 11:04:05;;;;;;;6.30;2.50;;;27.00;99.90;;;;;;4969465;28;20412;-71
2023/07/04 11:06:42;;;;;;;5.88;2.40;;;27.30;99.40;;;;;;4970717;28;20544;-71
2023/07/04 11:09:13;;;;;;;7.72;2.72;;;27.00;98.60;;;;;;4969317;28;20031;-71
2023/07/04 11:11:43;;;;;;;3.33;2.00;;;26.70;99.60;;;;;;4969542;28;20038;-71
2023/07/04 11:14:13;;;;;;;7.85;2.78;;;26.60;98.80;;;;;;4969386;28;20186;-70
2023/07/04 11:16:42;;;;;;;5.18;2.50;;;26.70;98.70;;;;;;4969651;28;20043;-71
2023/07/04 11:19:21;;;;;;;6.68;3.22;;;27.00;99.30;;;;;;4969385;28;20038;-70
2023/07/04 11:22:15;;;;;;;5.40;2.80;;;27.40;99.00;;;;;;4969121;28;20069;-71
2023/07/04 11:24:46;;;;;;;6.25;3.40;;;27.60;99.10;;;;;;4969715;28;20421;-71
2023/07/04 11:27:16;;;;;;;4.40;2.78;;;27.90;99.90;;;;;;4969461;28;20041;-71
2023/07/04 11:29:47;;;;;;;4.03;2.20;;;28.00;98.70;;;;;;4969079;28;20038;-71
2023/07/04 11:32:17;;;;;;;4.40;2.50;;;28.30;98.70;;;;;;4969372;28;20085;-71
2023/07/04 11:34:54;;;;;;;4.80;2.83;;;27.90;98.40;;;;;;4969158;28;20035;-71
2023/07/04 11:37:32;;;;;;;5.03;2.95;;;28.00;99.90;;;;;;4969283;28;20270;-71
2023/07/04 11:40:02;;;;;;;5.63;2.75;;;28.10;97.70;;;;;;4969267;28;20093;-71
2023/07/04 11:42:47;;;;;;;5.43;3.28;;;28.10;97.00;;;;;;4968993;28;20519;-71
2023/07/04 11:45:15;;;;;;;4.72;2.92;;;28.40;98.10;;;;;;4969520;28;20026;-71
2023/07/04 11:47:47;;;;;;;5.63;2.70;;;28.50;97.50;;;;;;4968941;28;20058;-71
2023/07/04 11:50:33;;;;;;;5.03;2.67;;;28.70;96.50;;;;;;4969050;28;20140;-71
2023/07/04 11:53:01;;;;;;;4.75;2.67;;;29.00;96.50;;;;;;4969125;28;20385;-71
2023/07/04 11:55:33;;;;;;;5.85;2.20;;;29.30;96.80;;;;;;4968994;28;20039;-71
2023/07/04 11:58:02;;;;;;;5.25;2.45;;;29.70;95.50;;;;;;4968845;28;20035;-71
2023/07/04 12:00:30;;;;;;;5.45;2.40;;;29.70;94.60;;;;;;4968706;28;20447;-71
2023/07/04 12:03:17;;;;;;;3.90;2.35;;;29.40;94.50;;;;;;4968885;28;20129;-71
2023/07/04 12:05:45;;;;;;;3.65;2.20;;;29.60;94.80;;;;;;4977274;28;20066;-71
2023/07/04 12:08:19;;;;;;;5.97;2.47;;;28.90;95.30;;;;;;4969213;28;20058;-71
2023/07/04 12:10:46;;;;;;;4.35;2.05;;;28.90;96.40;;;;;;4968752;28;20441;-71
2023/07/04 12:13:20;;;;;;;4.05;1.90;;;29.30;95.50;;;;;;4969149;28;20370;-71
2023/07/04 12:15:51;;;;;;;4.05;1.60;;;29.30;92.90;;;;;;4968651;28;20054;-71
2023/07/04 12:18:24;;;;;;;3.83;2.00;;;29.10;93.10;;;;;;4969077;28;20102;-71
2023/07/04 12:20:50;;;;;;;4.45;1.98;;;28.80;94.20;;;;;;4968903;28;20426;-71
2023/07/04 12:23:17;;;;;;;4.55;2.67;;;29.10;94.30;;;;;;4969125;28;20489;-71
2023/07/04 12:25:46;;;;;;;7.20;2.38;;;29.40;94.30;;;;;;4972785;28;20081;-71
2023/07/04 12:28:14;;;;;;;4.25;2.47;;;29.60;95.00;;;;;;4972604;28;20074;-71
2023/07/04 12:30:47;;;;;;;4.10;2.50;;;29.90;93.70;;;;;;4972781;28;20110;-71
2023/07/04 12:33:29;;;;;;;3.45;2.15;;;29.90;94.50;;;;;;4972886;28;20457;-71
2023/07/04 12:36:01;;;;;;;3.35;1.75;;;29.80;94.00;;;;;;4972677;28;20031;-71
2023/07/04 12:38:29;;;;;;;5.88;2.30;;;29.90;94.20;;;;;;4972861;28;20034;-71
2023/07/04 12:40:57;;;;;;;4.32;2.50;;;29.90;93.30;;;;;;4972550;28;20031;-71
2023/07/04 12:43:31;;;;;;;4.93;2.15;;;30.00;93.40;;;;;;4972334;28;20035;-71
2023/07/04 12:46:19;;;;;;;3.97;2.17;;;30.20;93.60;;;;;;4972232;28;20034;-71
2023/07/04 12:48:46;;;;;;;6.25;2.45;;;30.40;93.00;;;;;;4972275;28;20075;-71
2023/07/04 12:51:17;;;;;;;4.72;2.10;;;30.30;92.90;;;;;;4972186;28;20088;-71
2023/07/04 12:53:44;;;;;;;3.00;1.48;;;30.60;93.10;;;;;;4971968;28;20126;-71
2023/07/04 12:56:10;;;;;;;3.83;2.20;;;30.60;92.60;;;;;;4972062;28;20031;-71